Time;durP1;ratioP1;P1;durP2;ratioP2;P2;SDS_P1;SDS_P2;PMS_P1;PMS_P2;Temp;Humidity;BMP_temperature;BMP_pressure;BME280_temperature;BME280_humidity;BME280_pressure;Samples;Min_cycle;Max_cycle;Signal;HPM_P1;HPM_P2
2022/11/11 00:01:52;;;;;;;15.85;5.35;;;;;;;;;;4961784;28;20038;-91
2022/11/11 00:04:19;;;;;;;21.38;6.28;;;;;;;;;;4965027;28;20040;-92
2022/11/11 00:06:46;;;;;;;18.83;5.43;;;;;;;;;;4968086;28;20092;-92
2022/11/11 00:09:12;;;;;;;12.75;4.88;;;;;;;;;;4984080;28;20598;-92
2022/11/11 00:11:38;;;;;;;9.43;3.22;;;;;;;;;;4971509;28;20541;-92
2022/11/11 00:14:08;;;;;;;19.20;6.05;;;;;;;;;;4976197;28;20251;-91
2022/11/11 00:25:31;;;;;;;13.10;6.10;;;;;;;;;;5034629;28;20031;-91
2022/11/11 00:27:57;;;;;;;8.90;4.65;;;;;;;;;;4996234;28;20022;-91
2022/11/11 00:30:32;;;;;;;20.80;7.10;;;;;;;;;;4994246;28;20064;-91
2022/11/11 00:32:58;;;;;;;16.75;6.40;;;;;;;;;;5008870;28;20121;-91
2022/11/11 00:38:54;;;;;;;34.85;6.25;;;;;;;;;;5009169;28;20044;-91
2022/11/11 00:41:05;;;;;;;18.67;6.80;;;;;;;;;;5013060;28;20524;-91
2022/11/11 00:43:51;;;;;;;19.50;6.40;;;;;;;;;;5024151;28;20068;-90
2022/11/11 00:51:48;;;;;;;21.88;7.13;;;;;;;;;;4998824;28;20056;-92
2022/11/11 00:57:04;;;;;;;20.77;5.85;;;;;;;;;;4992928;28;20038;-92
2022/11/11 00:59:31;;;;;;;17.63;6.20;;;;;;;;;;4991158;28;20037;-92
2022/11/11 01:02:06;;;;;;;9.68;4.47;;;;;;;;;;4997064;28;20037;-92
2022/11/11 01:04:36;;;;;;;14.95;6.90;;;;;;;;;;5014257;28;20051;-93
2022/11/11 01:07:25;;;;;;;16.60;6.03;;;;;;;;;;5015925;28;20076;-90
2022/11/11 01:09:53;;;;;;;21.48;6.95;;;;;;;;;;5018186;28;20120;-92
2022/11/11 01:12:19;;;;;;;20.52;7.75;;;;;;;;;;5007579;28;20049;-92
2022/11/11 01:15:13;;;;;;;22.10;6.35;;;;;;;;;;4996688;28;20029;-92
2022/11/11 01:17:52;;;;;;;18.80;6.50;;;;;;;;;;5030534;28;20042;-91
2022/11/11 01:20:18;;;;;;;19.55;6.38;;;;;;;;;;4991860;28;20022;-92
2022/11/11 01:22:44;;;;;;;21.50;6.18;;;;;;;;;;4973681;28;20038;-91
2022/11/11 01:25:14;;;;;;;13.07;4.13;;;;;;;;;;4984800;28;20131;-92
2022/11/11 01:27:40;;;;;;;15.50;7.22;;;;;;;;;;4997658;28;20022;-92
2022/11/11 01:30:22;;;;;;;6.95;2.90;;;;;;;;;;4992977;28;20045;-91
2022/11/11 01:32:52;;;;;;;23.92;6.65;;;;;;;;;;5001267;28;20070;-91
2022/11/11 01:35:18;;;;;;;19.38;7.97;;;;;;;;;;4999065;28;20035;-91
2022/11/11 01:37:45;;;;;;;19.23;7.80;;;;;;;;;;4983708;28;20033;-91
2022/11/11 01:40:12;;;;;;;19.95;7.22;;;;;;;;;;4987846;28;20445;-91
2022/11/11 01:43:05;;;;;;;16.67;5.40;;;;;;;;;;4982176;28;20667;-91
2022/11/11 01:45:58;;;;;;;23.02;7.28;;;;;;;;;;5001805;28;20042;-91
2022/11/11 01:51:59;;;;;;;14.45;6.15;;;;;;;;;;5017522;28;20045;-91
2022/11/11 01:54:55;;;;;;;19.42;6.65;;;;;;;;;;5000408;28;20041;-91
2022/11/11 01:57:22;;;;;;;15.05;7.25;;;;;;;;;;4996652;28;20063;-91
2022/11/11 01:59:59;;;;;;;19.08;7.45;;;;;;;;;;5004782;28;20030;-91
2022/11/11 02:02:43;;;;;;;11.48;4.78;;;;;;;;;;4991061;28;20117;-92
2022/11/11 02:08:32;;;;;;;19.00;5.78;;;;;;;;;;5011124;28;20141;-92
2022/11/11 02:11:02;;;;;;;21.75;7.05;;;;;;;;;;4991789;28;20045;-91
2022/11/11 02:16:19;;;;;;;23.35;7.47;;;;;;;;;;5008621;28;20561;-91
2022/11/11 02:19:02;;;;;;;18.30;8.90;;;;;;;;;;5005056;28;20128;-91
2022/11/11 02:21:32;;;;;;;23.70;7.78;;;;;;;;;;5011970;28;20481;-92
2022/11/11 02:24:09;;;;;;;16.35;7.60;;;;;;;;;;5016469;28;20038;-92
2022/11/11 02:26:43;;;;;;;23.17;7.78;;;;;;;;;;5018550;28;20092;-92
2022/11/11 02:29:36;;;;;;;;;;;;;;;;;;;;;
2022/11/11 02:32:04;;;;;;;18.55;8.07;;;;;;;;;;5022570;28;20026;-91
2022/11/11 02:34:38;;;;;;;14.90;7.80;;;;;;;;;;4998891;28;20049;-91
2022/11/11 02:37:08;;;;;;;17.08;5.68;;;;;;;;;;5006267;28;20030;-90
2022/11/11 02:39:45;;;;;;;19.67;7.78;;;;;;;;;;5011688;28;20370;-91
2022/11/11 02:42:17;;;;;;;20.10;4.88;;;;;;;;;;5014802;28;20481;-91
2022/11/11 02:45:11;;;;;;;18.65;8.25;;;;;;;;;;5021700;28;20029;-90
2022/11/11 02:47:41;;;;;;;20.15;8.00;;;;;;;;;;5032670;28;20041;-90
2022/11/11 02:50:12;;;;;;;14.55;6.93;;;;;;;;;;5009485;28;20517;-90
2022/11/11 02:52:39;;;;;;;25.30;9.82;;;;;;;;;;5015238;28;20037;-90
2022/11/11 02:55:15;;;;;;;21.42;8.85;;;;;;;;;;5019933;28;20485;-91
2022/11/11 02:57:43;;;;;;;19.75;8.38;;;;;;;;;;5003072;28;20033;-90
2022/11/11 03:00:11;;;;;;;17.40;6.97;;;;;;;;;;5023408;28;20038;-90
2022/11/11 03:02:40;;;;;;;15.80;6.07;;;;;;;;;;5037367;28;20057;-90
2022/11/11 03:05:18;;;;;;;24.17;10.05;;;;;;;;;;5019184;28;20064;-90
2022/11/11 03:07:54;;;;;;;26.02;10.30;;;;;;;;;;5001834;28;20483;-90
2022/11/11 03:10:22;;;;;;;12.35;6.13;;;;;;;;;;4995626;28;20042;-90
2022/11/11 03:12:49;;;;;;;24.50;10.68;;;;;;;;;;4992486;28;20030;-90
2022/11/11 03:15:15;;;;;;;30.67;11.55;;;;;;;;;;5005307;28;20049;-90
2022/11/11 03:17:45;;;;;;;27.30;12.27;;;;;;;;;;5000187;28;20033;-90
2022/11/11 03:23:10;;;;;;;23.45;10.88;;;;;;;;;;5011303;28;20101;-90
2022/11/11 03:25:45;;;;;;;18.45;8.55;;;;;;;;;;5010873;28;20504;-91
2022/11/11 03:28:17;;;;;;;19.23;10.57;;;;;;;;;;4996033;28;20089;-91
2022/11/11 03:30:54;;;;;;;22.38;12.07;;;;;;;;;;5004759;28;20030;-91
2022/11/11 03:33:21;;;;;;;35.38;13.77;;;;;;;;;;4995177;28;20034;-91
2022/11/11 03:35:48;;;;;;;23.48;12.50;;;;;;;;;;4975178;28;20037;-92
2022/11/11 03:38:14;;;;;;;32.30;14.15;;;;;;;;;;4979748;28;20022;-91
2022/11/11 03:40:44;;;;;;;32.30;13.75;;;;;;;;;;4993416;28;20037;-92
2022/11/11 03:43:25;;;;;;;26.27;13.13;;;;;;;;;;4987428;28;20382;-92
2022/11/11 03:45:52;;;;;;;28.27;12.50;;;;;;;;;;4994471;28;20050;-91
2022/11/11 03:48:20;;;;;;;23.00;12.65;;;;;;;;;;4994440;28;20111;-92
2022/11/11 03:51:07;;;;;;;31.52;11.35;;;;;;;;;;4988655;28;20186;-91
2022/11/11 03:53:33;;;;;;;29.20;12.65;;;;;;;;;;5012582;28;20026;-91
2022/11/11 03:56:02;;;;;;;25.90;13.52;;;;;;;;;;4974926;28;20029;-91
2022/11/11 03:58:41;;;;;;;11.75;5.97;;;;;;;;;;4990209;28;20961;-90
2022/11/11 04:10:21;;;;;;;33.25;13.75;;;;;;;;;;4986022;28;20038;-91
2022/11/11 04:16:04;;;;;;;33.72;14.75;;;;;;;;;;5016201;28;20040;-91
2022/11/11 04:23:36;;;;;;;29.27;13.32;;;;;;;;;;4990423;28;20060;-92
2022/11/11 04:26:02;;;;;;;34.70;14.52;;;;;;;;;;4985094;28;20066;-92
2022/11/11 04:31:15;;;;;;;28.30;11.15;;;;;;;;;;4997404;28;20101;-91
2022/11/11 04:33:41;;;;;;;30.35;14.25;;;;;;;;;;4984418;28;20030;-91
2022/11/11 04:36:20;;;;;;;37.10;14.77;;;;;;;;;;4992841;28;20036;-92
2022/11/11 04:41:30;;;;;;;29.65;13.55;;;;;;;;;;4991016;28;20040;-91
2022/11/11 04:47:04;;;;;;;22.38;12.23;;;;;;;;;;4999280;28;20048;-90
2022/11/11 04:49:31;;;;;;;30.98;15.02;;;;;;;;;;5013590;28;20417;-90
2022/11/11 04:57:29;;;;;;;39.13;13.93;;;;;;;;;;4991234;28;20072;-91
2022/11/11 04:59:55;;;;;;;33.78;15.82;;;;;;;;;;4969584;28;20043;-91
2022/11/11 05:05:05;;;;;;;26.15;11.45;;;;;;;;;;4984231;28;20060;-92
2022/11/11 05:22:16;;;;;;;31.58;16.35;;;;;;;;;;5014278;28;20069;-91
2022/11/11 05:27:27;;;;;;;38.35;17.17;;;;;;;;;;5000005;28;20124;-91
2022/11/11 05:29:53;;;;;;;31.15;14.50;;;;;;;;;;4992421;28;20090;-91
2022/11/11 05:32:20;;;;;;;22.85;10.38;;;;;;;;;;4986735;28;20030;-91
2022/11/11 05:34:46;;;;;;;30.73;13.02;;;;;;;;;;4982247;28;20092;-91
2022/11/11 05:37:13;;;;;;;34.33;16.23;;;;;;;;;;4960378;28;20584;-91
2022/11/11 05:39:39;;;;;;;40.40;16.88;;;;;;;;;;5005258;28;20030;-91
2022/11/11 05:42:05;;;;;;;37.08;17.70;;;;;;;;;;4986589;28;20027;-91
2022/11/11 05:45:13;;;;;;;29.27;12.23;;;;;;;;;;4997629;28;20030;-91
2022/11/11 05:47:39;;;;;;;37.13;16.00;;;;;;;;;;4990922;28;20030;-91
2022/11/11 05:50:10;;;;;;;37.75;16.27;;;;;;;;;;4991773;28;20046;-91
2022/11/11 05:53:02;;;;;;;19.20;9.40;;;;;;;;;;4996016;28;20426;-91
2022/11/11 05:55:28;;;;;;;30.52;15.48;;;;;;;;;;4998211;28;20026;-92
2022/11/11 05:57:54;;;;;;;32.22;15.38;;;;;;;;;;4981614;28;20026;-91
2022/11/11 06:00:20;;;;;;;41.17;17.33;;;;;;;;;;4967349;28;20254;-91
2022/11/11 06:02:46;;;;;;;47.05;15.90;;;;;;;;;;4983490;28;20473;-91
2022/11/11 06:05:12;;;;;;;34.60;17.17;;;;;;;;;;5007685;28;20040;-91
2022/11/11 06:07:39;;;;;;;34.83;17.80;;;;;;;;;;4965698;28;21459;-91
2022/11/11 06:13:09;;;;;;;35.67;15.23;;;;;;;;;;4989941;28;20081;-93
2022/11/11 06:15:39;;;;;;;35.85;14.52;;;;;;;;;;4982363;28;20033;-90
2022/11/11 06:18:06;;;;;;;36.40;14.10;;;;;;;;;;4986288;28;20030;-90
2022/11/11 06:20:38;;;;;;;30.58;15.32;;;;;;;;;;5013909;28;20049;-91
2022/11/11 06:23:05;;;;;;;29.38;12.45;;;;;;;;;;4995240;28;20551;-90
2022/11/11 06:28:18;;;;;;;34.65;14.15;;;;;;;;;;5026383;28;20081;-90
2022/11/11 06:30:44;;;;;;;28.70;13.18;;;;;;;;;;5004825;28;20503;-90
2022/11/11 06:33:10;;;;;;;18.15;8.23;;;;;;;;;;5004733;28;20754;-89
2022/11/11 06:35:37;;;;;;;19.17;9.52;;;;;;;;;;5010732;28;20700;-90
2022/11/11 06:38:04;;;;;;;31.15;14.00;;;;;;;;;;4995763;28;20036;-89
2022/11/11 06:40:30;;;;;;;22.48;11.90;;;;;;;;;;4990125;28;20523;-90
2022/11/11 06:43:00;;;;;;;24.08;13.40;;;;;;;;;;4995913;28;20061;-89
2022/11/11 06:45:27;;;;;;;26.92;8.15;;;;;;;;;;5002691;28;20104;-90
2022/11/11 06:47:53;;;;;;;28.25;11.15;;;;;;;;;;5000947;28;20060;-90
2022/11/11 06:50:19;;;;;;;30.50;15.88;;;;;;;;;;5001389;28;20124;-90
2022/11/11 06:52:46;;;;;;;25.67;11.63;;;;;;;;;;5000818;28;20026;-90
2022/11/11 06:55:13;;;;;;;33.67;13.82;;;;;;;;;;4978309;28;20382;-90
2022/11/11 06:57:39;;;;;;;24.58;12.00;;;;;;;;;;5008293;28;20033;-90
2022/11/11 07:00:06;;;;;;;26.08;11.15;;;;;;;;;;5021741;28;20460;-89
2022/11/11 07:02:32;;;;;;;23.25;8.70;;;;;;;;;;5001438;28;20073;-89
2022/11/11 07:04:59;;;;;;;36.85;14.07;;;;;;;;;;5003902;28;20560;-89
2022/11/11 07:07:25;;;;;;;25.20;11.85;;;;;;;;;;5006155;28;20719;-89
2022/11/11 07:09:51;;;;;;;29.05;10.90;;;;;;;;;;5003804;28;20036;-89
2022/11/11 07:12:17;;;;;;;36.03;15.38;;;;;;;;;;4985861;28;20587;-90
2022/11/11 07:14:43;;;;;;;35.15;16.50;;;;;;;;;;5004446;28;20427;-89
2022/11/11 07:17:09;;;;;;;33.33;16.90;;;;;;;;;;4986976;28;20112;-89
2022/11/11 07:19:35;;;;;;;28.80;9.45;;;;;;;;;;4990710;28;20119;-89
2022/11/11 07:22:01;;;;;;;32.92;14.65;;;;;;;;;;5004473;28;20547;-89
2022/11/11 07:24:27;;;;;;;38.58;14.90;;;;;;;;;;4995402;28;20030;-89
2022/11/11 07:26:53;;;;;;;34.47;15.23;;;;;;;;;;4982332;28;20295;-89
2022/11/11 07:29:20;;;;;;;33.25;15.90;;;;;;;;;;5001938;28;20037;-89
2022/11/11 07:31:46;;;;;;;35.05;17.60;;;;;;;;;;4985286;28;20242;-90
2022/11/11 07:34:12;;;;;;;36.40;16.23;;;;;;;;;;4988333;28;20034;-89
2022/11/11 07:36:38;;;;;;;32.38;16.35;;;;;;;;;;4986805;28;20228;-90
2022/11/11 07:39:04;;;;;;;40.17;17.17;;;;;;;;;;5017687;28;20060;-89
2022/11/11 07:41:30;;;;;;;31.27;10.38;;;;;;;;;;5018345;28;20029;-89
2022/11/11 07:43:56;;;;;;;27.70;12.43;;;;;;;;;;4988083;28;20029;-89
2022/11/11 07:46:22;;;;;;;35.08;15.95;;;;;;;;;;4990855;28;20579;-89
2022/11/11 07:48:48;;;;;;;34.88;15.20;;;;;;;;;;4988002;28;20092;-89
2022/11/11 07:51:14;;;;;;;29.77;11.70;;;;;;;;;;5011499;28;20041;-89
2022/11/11 07:53:41;;;;;;;34.83;14.13;;;;;;;;;;4983447;28;20041;-89
2022/11/11 07:56:07;;;;;;;38.92;16.50;;;;;;;;;;5002912;28;20022;-89
2022/11/11 07:58:33;;;;;;;28.35;12.13;;;;;;;;;;5000727;28;20033;-89
2022/11/11 08:00:59;;;;;;;40.15;15.57;;;;;;;;;;4988647;28;20045;-89
2022/11/11 08:03:25;;;;;;;36.40;13.85;;;;;;;;;;4990811;28;20614;-89
2022/11/11 08:05:52;;;;;;;34.25;13.60;;;;;;;;;;4985494;28;20064;-89
2022/11/11 08:08:23;;;;;;;23.90;10.70;;;;;;;;;;4982870;28;20034;-90
2022/11/11 08:10:52;;;;;;;27.02;11.30;;;;;;;;;;4987671;28;20037;-89
2022/11/11 08:16:05;;;;;;;31.95;14.05;;;;;;;;;;4999998;28;22960;-89
2022/11/11 08:18:32;;;;;;;36.40;14.70;;;;;;;;;;4983651;28;20111;-89
2022/11/11 08:20:58;;;;;;;39.85;16.60;;;;;;;;;;5018687;28;20065;-89
2022/11/11 08:23:31;;;;;;;25.65;11.60;;;;;;;;;;4989045;28;20073;-89
2022/11/11 08:26:06;;;;;;;40.67;15.35;;;;;;;;;;4979246;28;20053;-89
2022/11/11 08:28:34;;;;;;;32.53;13.87;;;;;;;;;;5004261;28;20409;-89
2022/11/11 08:31:00;;;;;;;33.28;17.02;;;;;;;;;;5002681;28;20069;-90
2022/11/11 08:33:27;;;;;;;36.45;15.45;;;;;;;;;;4996020;28;20928;-89
2022/11/11 08:35:54;;;;;;;31.85;16.27;;;;;;;;;;5002691;28;20030;-89
2022/11/11 08:38:20;;;;;;;26.30;11.90;;;;;;;;;;5002279;28;20354;-89
2022/11/11 08:40:47;;;;;;;29.08;14.10;;;;;;;;;;5005059;28;20021;-89
2022/11/11 08:43:13;;;;;;;29.70;13.52;;;;;;;;;;5000553;28;20041;-89
2022/11/11 08:45:39;;;;;;;20.63;10.52;;;;;;;;;;4981681;28;20330;-89
2022/11/11 08:48:05;;;;;;;35.13;13.48;;;;;;;;;;4989935;28;20581;-89
2022/11/11 08:50:31;;;;;;;29.05;13.95;;;;;;;;;;5002620;28;20789;-89
2022/11/11 08:52:57;;;;;;;34.33;14.80;;;;;;;;;;4988392;28;20148;-89
2022/11/11 08:55:23;;;;;;;29.90;11.95;;;;;;;;;;4996756;28;20354;-89
2022/11/11 08:57:57;;;;;;;30.75;10.82;;;;;;;;;;4988553;28;20037;-89
2022/11/11 09:00:23;;;;;;;32.58;15.48;;;;;;;;;;4999449;28;20025;-89
2022/11/11 09:02:49;;;;;;;26.90;10.80;;;;;;;;;;4987149;28;20099;-89
2022/11/11 09:05:15;;;;;;;33.22;15.55;;;;;;;;;;4986379;28;20049;-89
2022/11/11 09:07:41;;;;;;;39.50;16.20;;;;;;;;;;4982970;28;20041;-89
2022/11/11 09:10:08;;;;;;;25.83;12.05;;;;;;;;;;4988739;28;20116;-89
2022/11/11 09:12:34;;;;;;;25.92;12.13;;;;;;;;;;4996370;28;20052;-89
2022/11/11 09:15:00;;;;;;;19.48;10.65;;;;;;;;;;4988563;28;20104;-89
2022/11/11 09:17:27;;;;;;;29.17;14.60;;;;;;;;;;4982191;28;20030;-89
2022/11/11 09:19:53;;;;;;;27.35;12.10;;;;;;;;;;5004213;28;20018;-89
2022/11/11 09:22:19;;;;;;;24.63;12.52;;;;;;;;;;4970818;28;20056;-89
2022/11/11 09:24:46;;;;;;;37.25;15.77;;;;;;;;;;4966571;28;20061;-90
2022/11/11 09:27:12;;;;;;;22.88;10.77;;;;;;;;;;4979335;28;20038;-89
2022/11/11 09:29:38;;;;;;;33.33;15.27;;;;;;;;;;4974180;28;20048;-89
2022/11/11 09:32:04;;;;;;;28.83;14.35;;;;;;;;;;4967954;28;20091;-89
2022/11/11 09:34:30;;;;;;;32.67;15.18;;;;;;;;;;4985396;28;20065;-89
2022/11/11 09:36:57;;;;;;;32.03;14.88;;;;;;;;;;4982928;28;20041;-88
2022/11/11 09:39:23;;;;;;;31.40;12.40;;;;;;;;;;4973321;28;20541;-89
2022/11/11 09:41:55;;;;;;;25.00;10.40;;;;;;;;;;4974771;28;20097;-89
2022/11/11 09:44:31;;;;;;;18.98;9.45;;;;;;;;;;4985622;28;20120;-89
2022/11/11 09:47:03;;;;;;;25.92;8.98;;;;;;;;;;4985497;28;20084;-89
2022/11/11 09:49:32;;;;;;;32.30;13.35;;;;;;;;;;4987687;28;20033;-88
2022/11/11 09:52:02;;;;;;;43.53;14.02;;;;;;;;;;4994175;28;20971;-89
2022/11/11 09:54:56;;;;;;;25.45;11.20;;;;;;;;;;4993769;28;20038;-90
2022/11/11 09:57:34;;;;;;;27.33;14.02;;;;;;;;;;4992180;28;20512;-89
2022/11/11 10:00:02;;;;;;;29.60;12.45;;;;;;;;;;4990447;28;20018;-89
2022/11/11 10:02:47;;;;;;;34.33;13.23;;;;;;;;;;4989645;28;20029;-89
2022/11/11 10:05:15;;;;;;;30.40;14.63;;;;;;;;;;4992055;28;20027;-89
2022/11/11 10:07:47;;;;;;;25.27;13.38;;;;;;;;;;4992255;28;20034;-90
2022/11/11 10:10:20;;;;;;;39.33;14.02;;;;;;;;;;5000172;28;20107;-88
2022/11/11 10:12:49;;;;;;;26.55;11.85;;;;;;;;;;4981992;28;20030;-90
2022/11/11 10:15:15;;;;;;;22.63;9.63;;;;;;;;;;4989394;28;20026;-89
2022/11/11 10:17:54;;;;;;;33.10;14.57;;;;;;;;;;4986707;28;20113;-89
2022/11/11 10:20:31;;;;;;;24.10;10.02;;;;;;;;;;4994213;28;20025;-89
2022/11/11 10:23:03;;;;;;;27.83;12.55;;;;;;;;;;5006084;28;20030;-89
2022/11/11 10:25:30;;;;;;;26.20;12.82;;;;;;;;;;5007255;28;20405;-89
2022/11/11 10:28:01;;;;;;;33.13;12.25;;;;;;;;;;5007717;28;20374;-89
2022/11/11 10:30:37;;;;;;;24.15;11.93;;;;;;;;;;5001661;28;20030;-89
2022/11/11 10:33:06;;;;;;;27.73;11.50;;;;;;;;;;5008280;28;20040;-89
2022/11/11 10:35:33;;;;;;;21.98;9.93;;;;;;;;;;5005989;28;20030;-89
2022/11/11 10:38:17;;;;;;;26.17;10.68;;;;;;;;;;4990526;28;20041;-89
2022/11/11 10:40:43;;;;;;;34.88;15.55;;;;;;;;;;5007901;28;20029;-89
2022/11/11 10:43:21;;;;;;;25.35;11.77;;;;;;;;;;5016980;28;20040;-89
2022/11/11 10:45:47;;;;;;;33.42;13.43;;;;;;;;;;5008281;28;20147;-89
2022/11/11 10:48:16;;;;;;;27.75;12.80;;;;;;;;;;5019505;28;20369;-89
2022/11/11 10:50:44;;;;;;;31.38;12.95;;;;;;;;;;5000553;28;20037;-89
2022/11/11 10:53:13;;;;;;;27.95;13.15;;;;;;;;;;5007893;28;20100;-89
2022/11/11 10:55:43;;;;;;;26.45;12.98;;;;;;;;;;5004843;28;20022;-90
2022/11/11 10:58:38;;;;;;;32.00;13.93;;;;;;;;;;5003834;28;20472;-89
2022/11/11 11:01:07;;;;;;;29.13;13.43;;;;;;;;;;4993347;28;20132;-89
2022/11/11 11:03:39;;;;;;;27.10;12.98;;;;;;;;;;5015639;28;20504;-89
2022/11/11 11:06:11;;;;;;;27.98;13.15;;;;;;;;;;5001015;28;20049;-89
2022/11/11 11:08:48;;;;;;;26.00;11.75;;;;;;;;;;5008751;28;20033;-89
2022/11/11 11:11:22;;;;;;;18.13;8.38;;;;;;;;;;5001675;28;20026;-89
2022/11/11 11:13:51;;;;;;;22.98;9.75;;;;;;;;;;4999826;28;20088;-89
2022/11/11 11:16:18;;;;;;;27.45;12.07;;;;;;;;;;5001699;28;20026;-89
2022/11/11 11:18:44;;;;;;;32.00;13.00;;;;;;;;;;5008232;28;20036;-89
2022/11/11 11:21:10;;;;;;;20.30;10.75;;;;;;;;;;4982814;28;20076;-89
2022/11/11 11:23:40;;;;;;;28.27;13.75;;;;;;;;;;4990872;28;20042;-89
2022/11/11 11:26:08;;;;;;;27.65;12.63;;;;;;;;;;4986547;28;20480;-89
2022/11/11 11:28:34;;;;;;;31.50;13.80;;;;;;;;;;4986350;28;20585;-89
2022/11/11 11:31:00;;;;;;;31.38;12.18;;;;;;;;;;4966066;28;20042;-89
2022/11/11 11:33:27;;;;;;;28.25;13.93;;;;;;;;;;4989449;28;20060;-89
2022/11/11 11:35:53;;;;;;;25.15;12.23;;;;;;;;;;4973148;28;20087;-89
2022/11/11 11:38:42;;;;;;;28.98;14.23;;;;;;;;;;4971100;28;20558;-89
2022/11/11 11:41:08;;;;;;;18.00;8.68;;;;;;;;;;4983572;28;20485;-89
2022/11/11 11:43:38;;;;;;;27.13;12.77;;;;;;;;;;4982590;28;20064;-89
2022/11/11 11:46:14;;;;;;;30.50;13.00;;;;;;;;;;4986477;28;20037;-89
2022/11/11 11:48:50;;;;;;;23.35;10.73;;;;;;;;;;4981639;28;20061;-89
2022/11/11 11:51:54;;;;;;;26.42;12.82;;;;;;;;;;4986328;28;20030;-89
2022/11/11 11:54:37;;;;;;;23.10;11.68;;;;;;;;;;4941441;28;20031;-89
2022/11/11 11:57:08;;;;;;;18.50;9.68;;;;;;;;;;4937607;28;20463;-89
2022/11/11 11:59:51;;;;;;;24.70;11.15;;;;;;;;;;4969061;28;20038;-89
2022/11/11 12:02:17;;;;;;;26.02;12.00;;;;;;;;;;4984432;28;20220;-89
2022/11/11 12:05:02;;;;;;;23.75;11.18;;;;;;;;;;4983607;28;20026;-89
2022/11/11 12:07:38;;;;;;;31.77;12.32;;;;;;;;;;4998379;28;20037;-89
2022/11/11 12:10:10;;;;;;;26.35;11.30;;;;;;;;;;5001844;28;20182;-90
2022/11/11 12:12:45;;;;;;;23.30;12.93;;;;;;;;;;4982004;28;20055;-90
2022/11/11 12:15:11;;;;;;;19.23;11.02;;;;;;;;;;4979740;28;20023;-89
2022/11/11 12:17:43;;;;;;;24.33;10.88;;;;;;;;;;4981664;28;20033;-89
2022/11/11 12:20:13;;;;;;;21.45;10.23;;;;;;;;;;4984523;28;20030;-89
2022/11/11 12:22:53;;;;;;;22.17;10.55;;;;;;;;;;4986191;28;20453;-89
2022/11/11 12:25:23;;;;;;;22.83;11.68;;;;;;;;;;4987755;28;20485;-89
2022/11/11 12:27:55;;;;;;;27.17;12.68;;;;;;;;;;5000945;28;20037;-89
2022/11/11 12:30:27;;;;;;;19.77;7.55;;;;;;;;;;4982084;28;20057;-89
2022/11/11 12:33:12;;;;;;;27.40;12.75;;;;;;;;;;4978914;28;20034;-89
2022/11/11 12:35:44;;;;;;;26.42;12.05;;;;;;;;;;4979430;28;20085;-89
2022/11/11 12:38:29;;;;;;;19.25;8.63;;;;;;;;;;4986766;28;20022;-89
2022/11/11 12:41:02;;;;;;;20.45;10.18;;;;;;;;;;4981002;28;20493;-89
2022/11/11 12:43:37;;;;;;;15.52;7.65;;;;;;;;;;4983808;28;20054;-89
2022/11/11 12:46:12;;;;;;;27.40;12.70;;;;;;;;;;4984150;28;20034;-89
2022/11/11 12:48:47;;;;;;;25.50;11.25;;;;;;;;;;4982499;28;20124;-89
2022/11/11 12:51:13;;;;;;;26.30;12.30;;;;;;;;;;5000473;28;20034;-89
2022/11/11 12:53:54;;;;;;;20.67;11.02;;;;;;;;;;4983969;28;20289;-89
2022/11/11 12:56:42;;;;;;;24.77;12.23;;;;;;;;;;4986769;28;20267;-89
2022/11/11 12:59:15;;;;;;;11.65;5.97;;;;;;;;;;4979394;28;20067;-89
2022/11/11 13:01:41;;;;;;;25.33;11.27;;;;;;;;;;4983389;28;20101;-89
2022/11/11 13:04:28;;;;;;;35.83;13.68;;;;;;;;;;4982689;28;20030;-89
2022/11/11 13:07:04;;;;;;;23.05;13.40;;;;;;;;;;4981952;28;20026;-89
2022/11/11 13:09:42;;;;;;;24.05;12.68;;;;;;;;;;4981806;28;20076;-89
2022/11/11 13:12:20;;;;;;;21.45;11.40;;;;;;;;;;5000960;28;20036;-89
2022/11/11 13:15:11;;;;;;;28.27;11.55;;;;;;;;;;4978446;28;20035;-89
2022/11/11 13:17:38;;;;;;;27.48;12.80;;;;;;;;;;4984112;28;20033;-89
2022/11/11 13:20:22;;;;;;;28.95;11.65;;;;;;;;;;4977025;28;20041;-89
2022/11/11 13:22:49;;;;;;;27.95;12.77;;;;;;;;;;4999588;28;20429;-89
2022/11/11 13:25:22;;;;;;;27.95;12.65;;;;;;;;;;4999850;28;20033;-89
2022/11/11 13:27:49;;;;;;;30.60;12.20;;;;;;;;;;5018305;28;20033;-89
2022/11/11 13:30:31;;;;;;;20.15;10.15;;;;;;;;;;5003865;28;20030;-89
2022/11/11 13:33:11;;;;;;;27.42;12.35;;;;;;;;;;5001022;28;20032;-89
2022/11/11 13:35:41;;;;;;;24.02;12.77;;;;;;;;;;4999033;28;20154;-89
2022/11/11 13:38:11;;;;;;;25.02;13.50;;;;;;;;;;5006677;28;20056;-89
2022/11/11 13:40:40;;;;;;;34.67;14.23;;;;;;;;;;5005517;28;20030;-89
2022/11/11 13:43:15;;;;;;;16.40;8.35;;;;;;;;;;5003432;28;20504;-89
2022/11/11 13:45:41;;;;;;;;;;;;;;;;;;5003809;28;20330;-89
2022/11/11 13:48:15;;;;;;;28.17;12.20;;;;;;;;;;5014487;28;20266;-89
2022/11/11 13:50:42;;;;;;;25.75;12.50;;;;;;;;;;5005146;28;20056;-89
2022/11/11 13:53:15;;;;;;;35.88;14.35;;;;;;;;;;5005226;28;21590;-90
2022/11/11 13:55:43;;;;;;;29.10;13.07;;;;;;;;;;5011404;28;20038;-89
2022/11/11 13:58:28;;;;;;;36.17;14.98;;;;;;;;;;5015062;28;20105;-89
2022/11/11 14:00:58;;;;;;;33.60;13.30;;;;;;;;;;4998908;28;20446;-89
2022/11/11 14:03:24;;;;;;;30.02;13.55;;;;;;;;;;4997706;28;20060;-89
2022/11/11 14:06:10;;;;;;;28.35;12.48;;;;;;;;;;5012827;28;20022;-89
2022/11/11 14:08:49;;;;;;;34.88;14.02;;;;;;;;;;5002645;28;20038;-89
2022/11/11 14:11:24;;;;;;;33.90;14.63;;;;;;;;;;5011021;28;20029;-89
2022/11/11 14:13:51;;;;;;;30.20;14.80;;;;;;;;;;5013837;28;20140;-89
2022/11/11 14:16:35;;;;;;;36.50;14.52;;;;;;;;;;5004559;28;20022;-89
2022/11/11 14:19:23;;;;;;;33.88;14.55;;;;;;;;;;5006454;28;20036;-89
2022/11/11 14:21:50;;;;;;;31.88;15.48;;;;;;;;;;4995339;28;20189;-89
2022/11/11 14:24:31;;;;;;;24.08;13.45;;;;;;;;;;4999685;28;20517;-89
2022/11/11 14:26:59;;;;;;;29.83;14.30;;;;;;;;;;5001348;28;20055;-89
2022/11/11 14:29:33;;;;;;;21.63;10.88;;;;;;;;;;5016024;28;20072;-89
2022/11/11 14:32:22;;;;;;;26.35;12.13;;;;;;;;;;4998517;28;20670;-89
2022/11/11 14:34:52;;;;;;;20.65;10.82;;;;;;;;;;4996971;28;20045;-89
2022/11/11 14:37:24;;;;;;;26.73;13.13;;;;;;;;;;4999358;28;20089;-89
2022/11/11 14:39:52;;;;;;;30.88;13.25;;;;;;;;;;5024544;28;20381;-89
2022/11/11 14:42:37;;;;;;;26.83;12.10;;;;;;;;;;5008340;28;20050;-89
2022/11/11 14:45:25;;;;;;;24.73;11.70;;;;;;;;;;5021389;28;20368;-89
2022/11/11 14:47:52;;;;;;;27.25;12.77;;;;;;;;;;5007736;28;20041;-89
2022/11/11 14:50:27;;;;;;;18.13;7.65;;;;;;;;;;5002494;28;20076;-89
2022/11/11 14:52:54;;;;;;;31.88;10.93;;;;;;;;;;5021225;28;20026;-89
2022/11/11 14:55:23;;;;;;;29.02;9.13;;;;;;;;;;5006214;28;20450;-89
2022/11/11 14:57:51;;;;;;;19.90;10.23;;;;;;;;;;5004192;28;20022;-89
2022/11/11 15:00:20;;;;;;;22.95;12.43;;;;;;;;;;5006622;28;20025;-89
2022/11/11 15:03:00;;;;;;;26.88;13.02;;;;;;;;;;5019008;28;20330;-89
2022/11/11 15:05:42;;;;;;;28.92;12.60;;;;;;;;;;5004737;28;20035;-89
2022/11/11 15:08:23;;;;;;;25.55;12.40;;;;;;;;;;5017697;28;20409;-89
2022/11/11 15:11:08;;;;;;;28.20;13.10;;;;;;;;;;5032914;28;20481;-89
2022/11/11 15:13:37;;;;;;;26.77;12.18;;;;;;;;;;5006878;28;20040;-89
2022/11/11 15:16:15;;;;;;;31.55;12.82;;;;;;;;;;5003733;28;20632;-89
2022/11/11 15:18:48;;;;;;;31.05;12.90;;;;;;;;;;5008772;28;20065;-89
2022/11/11 15:21:26;;;;;;;28.73;14.25;;;;;;;;;;4996873;28;20049;-89
2022/11/11 15:24:28;;;;;;;26.33;11.68;;;;;;;;;;4998839;28;20026;-89
2022/11/11 15:27:20;;;;;;;28.65;13.07;;;;;;;;;;4927042;28;20126;-89
2022/11/11 15:29:55;;;;;;;24.08;11.40;;;;;;;;;;5000068;28;20041;-89
2022/11/11 15:32:30;;;;;;;20.98;10.93;;;;;;;;;;5000330;28;20496;-89
2022/11/11 15:35:19;;;;;;;29.23;12.17;;;;;;;;;;5004318;28;20038;-89
2022/11/11 15:37:52;;;;;;;28.63;13.88;;;;;;;;;;5006222;28;20288;-88
2022/11/11 15:40:19;;;;;;;16.30;6.60;;;;;;;;;;5003864;28;20033;-89
2022/11/11 15:42:46;;;;;;;20.63;11.38;;;;;;;;;;5005712;28;20426;-89
2022/11/11 15:45:19;;;;;;;27.35;13.13;;;;;;;;;;4990567;28;20037;-89
2022/11/11 15:47:46;;;;;;;30.38;13.40;;;;;;;;;;5017221;28;20057;-90
2022/11/11 15:50:36;;;;;;;25.23;12.23;;;;;;;;;;5003400;28;20041;-89
2022/11/11 15:53:03;;;;;;;29.98;13.13;;;;;;;;;;5014669;28;20042;-89
2022/11/11 15:55:34;;;;;;;23.92;12.48;;;;;;;;;;5018244;28;20544;-89
2022/11/11 15:58:16;;;;;;;30.00;12.65;;;;;;;;;;5006279;28;20025;-89
2022/11/11 16:00:44;;;;;;;25.92;13.13;;;;;;;;;;5007101;28;20032;-89
2022/11/11 16:03:18;;;;;;;20.58;11.57;;;;;;;;;;5020716;28;20036;-89
2022/11/11 16:05:44;;;;;;;27.30;12.27;;;;;;;;;;5001960;28;20036;-89
2022/11/11 16:08:19;;;;;;;31.13;14.65;;;;;;;;;;5001479;28;20353;-89
2022/11/11 16:10:47;;;;;;;27.48;13.00;;;;;;;;;;5004672;28;20029;-89
2022/11/11 16:13:16;;;;;;;33.30;13.73;;;;;;;;;;5002154;28;20077;-89
2022/11/11 16:15:47;;;;;;;27.80;11.18;;;;;;;;;;5006684;28;20082;-89
2022/11/11 16:18:18;;;;;;;24.60;13.43;;;;;;;;;;5005233;28;20489;-89
2022/11/11 16:20:48;;;;;;;16.67;7.15;;;;;;;;;;4988669;28;20064;-89